sensor_id;sensor_type;location;lat;lon;timestamp;P1;durP1;ratioP1;P2;durP2;ratioP2
68484;SDS011;55472;50.060;21.960;2022-12-07T00:01:19;20.83;;;7.43;;
68484;SDS011;55472;50.060;21.960;2022-12-07T00:03:52;25.90;;;7.77;;
68484;SDS011;55472;50.060;21.960;2022-12-07T00:06:22;16.38;;;5.63;;
68484;SDS011;55472;50.060;21.960;2022-12-07T00:08:48;16.27;;;5.72;;
68484;SDS011;55472;50.060;21.960;2022-12-07T00:11:15;12.65;;;4.82;;
68484;SDS011;55472;50.060;21.960;2022-12-07T00:13:46;11.85;;;4.60;;
68484;SDS011;55472;50.060;21.960;2022-12-07T00:16:17;14.47;;;5.27;;
68484;SDS011;55472;50.060;21.960;2022-12-07T00:18:45;11.45;;;4.55;;
68484;SDS011;55472;50.060;21.960;2022-12-07T00:21:18;14.48;;;5.75;;
68484;SDS011;55472;50.060;21.960;2022-12-07T00:23:59;12.18;;;4.78;;
68484;SDS011;55472;50.060;21.960;2022-12-07T00:26:31;17.00;;;5.32;;
68484;SDS011;55472;50.060;21.960;2022-12-07T00:29:07;18.40;;;5.77;;
68484;SDS011;55472;50.060;21.960;2022-12-07T00:31:46;24.73;;;10.75;;
68484;SDS011;55472;50.060;21.960;2022-12-07T00:34:13;25.50;;;11.25;;
68484;SDS011;55472;50.060;21.960;2022-12-07T00:36:45;14.90;;;5.50;;
68484;SDS011;55472;50.060;21.960;2022-12-07T00:39:11;14.85;;;6.07;;
68484;SDS011;55472;50.060;21.960;2022-12-07T00:41:37;13.13;;;4.90;;
68484;SDS011;55472;50.060;21.960;2022-12-07T00:44:03;15.45;;;4.35;;
68484;SDS011;55472;50.060;21.960;2022-12-07T00:46:30;12.30;;;4.38;;
68484;SDS011;55472;50.060;21.960;2022-12-07T00:48:56;11.77;;;4.57;;
68484;SDS011;55472;50.060;21.960;2022-12-07T00:51:23;13.13;;;4.68;;
68484;SDS011;55472;50.060;21.960;2022-12-07T00:53:50;11.53;;;4.43;;
68484;SDS011;55472;50.060;21.960;2022-12-07T00:56:19;11.82;;;4.20;;
68484;SDS011;55472;50.060;21.960;2022-12-07T00:58:52;11.85;;;4.50;;
68484;SDS011;55472;50.060;21.960;2022-12-07T01:01:24;14.10;;;4.15;;
68484;SDS011;55472;50.060;21.960;2022-12-07T01:03:54;9.95;;;3.97;;
68484;SDS011;55472;50.060;21.960;2022-12-07T01:06:21;11.20;;;4.00;;
68484;SDS011;55472;50.060;21.960;2022-12-07T01:08:48;11.00;;;3.13;;
68484;SDS011;55472;50.060;21.960;2022-12-07T01:11:16;10.60;;;3.70;;
68484;SDS011;55472;50.060;21.960;2022-12-07T01:13:46;12.30;;;4.07;;
68484;SDS011;55472;50.060;21.960;2022-12-07T01:16:15;12.80;;;4.47;;
68484;SDS011;55472;50.060;21.960;2022-12-07T01:18:42;14.63;;;6.67;;
68484;SDS011;55472;50.060;21.960;2022-12-07T01:21:17;23.00;;;12.40;;
68484;SDS011;55472;50.060;21.960;2022-12-07T01:23:46;23.27;;;13.30;;
68484;SDS011;55472;50.060;21.960;2022-12-07T01:26:14;16.02;;;7.55;;
68484;SDS011;55472;50.060;21.960;2022-12-07T01:28:43;14.60;;;5.13;;
68484;SDS011;55472;50.060;21.960;2022-12-07T01:31:11;11.90;;;3.80;;
68484;SDS011;55472;50.060;21.960;2022-12-07T01:33:44;9.43;;;3.72;;
68484;SDS011;55472;50.060;21.960;2022-12-07T01:38:46;10.55;;;3.10;;
68484;SDS011;55472;50.060;21.960;2022-12-07T01:41:16;10.45;;;3.78;;
68484;SDS011;55472;50.060;21.960;2022-12-07T01:46:56;8.93;;;3.28;;
68484;SDS011;55472;50.060;21.960;2022-12-07T01:49:27;9.43;;;3.33;;
68484;SDS011;55472;50.060;21.960;2022-12-07T01:52:13;7.32;;;2.83;;
68484;SDS011;55472;50.060;21.960;2022-12-07T01:54:54;7.38;;;3.17;;
68484;SDS011;55472;50.060;21.960;2022-12-07T01:57:28;6.77;;;2.67;;
68484;SDS011;55472;50.060;21.960;2022-12-07T01:59:56;8.52;;;3.15;;
68484;SDS011;55472;50.060;21.960;2022-12-07T02:02:27;7.72;;;3.30;;
68484;SDS011;55472;50.060;21.960;2022-12-07T02:05:17;8.65;;;3.28;;
68484;SDS011;55472;50.060;21.960;2022-12-07T02:07:44;9.63;;;3.22;;
68484;SDS011;55472;50.060;21.960;2022-12-07T02:10:13;8.23;;;2.73;;
68484;SDS011;55472;50.060;21.960;2022-12-07T02:12:54;8.98;;;3.35;;
68484;SDS011;55472;50.060;21.960;2022-12-07T02:15:28;8.77;;;3.35;;
68484;SDS011;55472;50.060;21.960;2022-12-07T02:18:29;9.90;;;3.58;;
68484;SDS011;55472;50.060;21.960;2022-12-07T02:21:34;9.38;;;3.15;;
68484;SDS011;55472;50.060;21.960;2022-12-07T02:25:01;8.03;;;3.20;;
68484;SDS011;55472;50.060;21.960;2022-12-07T02:35:07;8.70;;;3.10;;
68484;SDS011;55472;50.060;21.960;2022-12-07T02:40:52;8.48;;;3.08;;
68484;SDS011;55472;50.060;21.960;2022-12-07T02:43:30;9.15;;;3.40;;
68484;SDS011;55472;50.060;21.960;2022-12-07T02:46:08;11.13;;;3.08;;
68484;SDS011;55472;50.060;21.960;2022-12-07T02:48:39;7.50;;;2.70;;
68484;SDS011;55472;50.060;21.960;2022-12-07T02:51:09;8.10;;;2.67;;
68484;SDS011;55472;50.060;21.960;2022-12-07T02:53:36;7.97;;;2.90;;
68484;SDS011;55472;50.060;21.960;2022-12-07T03:04:28;9.97;;;2.90;;
68484;SDS011;55472;50.060;21.960;2022-12-07T03:12:44;10.57;;;3.40;;
68484;SDS011;55472;50.060;21.960;2022-12-07T03:18:30;8.23;;;3.20;;
68484;SDS011;55472;50.060;21.960;2022-12-07T03:21:04;9.00;;;3.50;;
68484;SDS011;55472;50.060;21.960;2022-12-07T03:23:37;10.10;;;4.13;;
68484;SDS011;55472;50.060;21.960;2022-12-07T03:26:06;6.70;;;2.88;;
68484;SDS011;55472;50.060;21.960;2022-12-07T03:28:37;8.38;;;2.85;;
68484;SDS011;55472;50.060;21.960;2022-12-07T03:31:11;9.20;;;3.30;;
68484;SDS011;55472;50.060;21.960;2022-12-07T03:34:07;9.52;;;4.15;;
68484;SDS011;55472;50.060;21.960;2022-12-07T03:36:55;10.32;;;4.63;;
68484;SDS011;55472;50.060;21.960;2022-12-07T03:42:07;8.55;;;3.47;;
68484;SDS011;55472;50.060;21.960;2022-12-07T03:44:35;8.50;;;3.30;;
68484;SDS011;55472;50.060;21.960;2022-12-07T03:47:04;7.75;;;3.25;;
68484;SDS011;55472;50.060;21.960;2022-12-07T03:49:51;8.15;;;2.90;;
68484;SDS011;55472;50.060;21.960;2022-12-07T03:52:41;7.72;;;2.78;;
68484;SDS011;55472;50.060;21.960;2022-12-07T03:55:46;6.70;;;2.85;;
68484;SDS011;55472;50.060;21.960;2022-12-07T03:58:18;9.13;;;2.97;;
68484;SDS011;55472;50.060;21.960;2022-12-07T04:00:46;8.70;;;3.35;;
68484;SDS011;55472;50.060;21.960;2022-12-07T04:03:14;10.00;;;3.67;;
68484;SDS011;55472;50.060;21.960;2022-12-07T04:05:40;9.25;;;3.35;;
68484;SDS011;55472;50.060;21.960;2022-12-07T04:08:08;9.95;;;3.72;;
68484;SDS011;55472;50.060;21.960;2022-12-07T04:10:35;10.73;;;3.30;;
68484;SDS011;55472;50.060;21.960;2022-12-07T04:13:01;10.82;;;3.78;;
68484;SDS011;55472;50.060;21.960;2022-12-07T04:15:27;10.85;;;3.92;;
68484;SDS011;55472;50.060;21.960;2022-12-07T04:17:53;11.43;;;4.03;;
68484;SDS011;55472;50.060;21.960;2022-12-07T04:20:20;9.52;;;3.72;;
68484;SDS011;55472;50.060;21.960;2022-12-07T04:22:46;9.43;;;3.30;;
68484;SDS011;55472;50.060;21.960;2022-12-07T04:25:13;10.38;;;3.65;;
68484;SDS011;55472;50.060;21.960;2022-12-07T04:27:39;10.10;;;4.28;;
68484;SDS011;55472;50.060;21.960;2022-12-07T04:30:05;8.15;;;3.30;;
68484;SDS011;55472;50.060;21.960;2022-12-07T04:32:32;9.23;;;3.50;;
68484;SDS011;55472;50.060;21.960;2022-12-07T04:34:58;7.83;;;2.87;;
68484;SDS011;55472;50.060;21.960;2022-12-07T04:37:24;9.18;;;3.33;;
68484;SDS011;55472;50.060;21.960;2022-12-07T04:39:50;11.63;;;3.38;;
68484;SDS011;55472;50.060;21.960;2022-12-07T04:42:16;11.02;;;4.07;;
68484;SDS011;55472;50.060;21.960;2022-12-07T04:44:42;12.95;;;4.70;;
68484;SDS011;55472;50.060;21.960;2022-12-07T04:47:09;9.93;;;4.50;;
68484;SDS011;55472;50.060;21.960;2022-12-07T04:49:35;10.18;;;4.22;;
68484;SDS011;55472;50.060;21.960;2022-12-07T04:52:01;12.73;;;5.75;;
68484;SDS011;55472;50.060;21.960;2022-12-07T04:54:28;12.70;;;5.53;;
68484;SDS011;55472;50.060;21.960;2022-12-07T04:56:54;11.53;;;5.17;;
68484;SDS011;55472;50.060;21.960;2022-12-07T04:59:20;14.68;;;5.82;;
68484;SDS011;55472;50.060;21.960;2022-12-07T05:01:46;13.00;;;5.75;;
68484;SDS011;55472;50.060;21.960;2022-12-07T05:04:12;11.45;;;4.43;;
68484;SDS011;55472;50.060;21.960;2022-12-07T05:06:38;12.70;;;4.80;;
68484;SDS011;55472;50.060;21.960;2022-12-07T05:09:05;10.63;;;4.20;;
68484;SDS011;55472;50.060;21.960;2022-12-07T05:11:31;16.88;;;5.43;;
68484;SDS011;55472;50.060;21.960;2022-12-07T05:16:45;16.83;;;5.65;;
68484;SDS011;55472;50.060;21.960;2022-12-07T05:19:14;11.25;;;4.18;;
68484;SDS011;55472;50.060;21.960;2022-12-07T05:21:40;18.80;;;5.83;;
68484;SDS011;55472;50.060;21.960;2022-12-07T05:24:07;16.75;;;6.05;;
68484;SDS011;55472;50.060;21.960;2022-12-07T05:26:35;19.30;;;6.93;;
68484;SDS011;55472;50.060;21.960;2022-12-07T05:29:01;22.85;;;7.05;;
68484;SDS011;55472;50.060;21.960;2022-12-07T05:31:27;23.63;;;7.70;;
68484;SDS011;55472;50.060;21.960;2022-12-07T05:33:54;23.80;;;8.07;;
68484;SDS011;55472;50.060;21.960;2022-12-07T05:36:20;33.85;;;10.40;;
68484;SDS011;55472;50.060;21.960;2022-12-07T05:38:46;29.17;;;9.75;;
68484;SDS011;55472;50.060;21.960;2022-12-07T05:41:14;29.05;;;9.15;;
68484;SDS011;55472;50.060;21.960;2022-12-07T05:44:02;22.98;;;7.65;;
68484;SDS011;55472;50.060;21.960;2022-12-07T05:46:28;18.63;;;7.30;;
68484;SDS011;55472;50.060;21.960;2022-12-07T05:48:54;21.17;;;7.28;;
68484;SDS011;55472;50.060;21.960;2022-12-07T05:51:20;20.73;;;7.47;;
68484;SDS011;55472;50.060;21.960;2022-12-07T05:53:47;17.80;;;6.40;;
68484;SDS011;55472;50.060;21.960;2022-12-07T05:56:13;19.27;;;6.40;;
68484;SDS011;55472;50.060;21.960;2022-12-07T05:58:39;22.20;;;7.68;;
68484;SDS011;55472;50.060;21.960;2022-12-07T06:01:23;18.15;;;6.50;;
68484;SDS011;55472;50.060;21.960;2022-12-07T06:03:49;24.27;;;7.68;;
68484;SDS011;55472;50.060;21.960;2022-12-07T06:06:15;25.77;;;7.88;;
68484;SDS011;55472;50.060;21.960;2022-12-07T06:08:41;12.97;;;4.10;;
68484;SDS011;55472;50.060;21.960;2022-12-07T06:11:07;10.27;;;3.88;;
68484;SDS011;55472;50.060;21.960;2022-12-07T06:13:52;22.00;;;5.97;;
68484;SDS011;55472;50.060;21.960;2022-12-07T06:16:18;22.95;;;5.97;;
68484;SDS011;55472;50.060;21.960;2022-12-07T06:18:45;30.20;;;6.40;;
68484;SDS011;55472;50.060;21.960;2022-12-07T06:21:11;17.13;;;4.38;;
68484;SDS011;55472;50.060;21.960;2022-12-07T06:23:37;24.75;;;6.68;;
68484;SDS011;55472;50.060;21.960;2022-12-07T06:26:03;18.55;;;5.65;;
68484;SDS011;55472;50.060;21.960;2022-12-07T06:28:29;20.73;;;5.75;;
68484;SDS011;55472;50.060;21.960;2022-12-07T06:30:59;22.83;;;6.30;;
68484;SDS011;55472;50.060;21.960;2022-12-07T06:33:26;18.63;;;4.40;;
68484;SDS011;55472;50.060;21.960;2022-12-07T06:35:53;15.18;;;5.20;;
68484;SDS011;55472;50.060;21.960;2022-12-07T06:38:20;8.90;;;3.30;;
68484;SDS011;55472;50.060;21.960;2022-12-07T06:40:46;14.90;;;5.00;;
68484;SDS011;55472;50.060;21.960;2022-12-07T06:43:13;14.70;;;4.95;;
68484;SDS011;55472;50.060;21.960;2022-12-07T06:45:40;16.35;;;5.00;;
68484;SDS011;55472;50.060;21.960;2022-12-07T06:48:07;33.80;;;10.50;;
68484;SDS011;55472;50.060;21.960;2022-12-07T06:50:33;24.48;;;7.60;;
68484;SDS011;55472;50.060;21.960;2022-12-07T06:52:59;24.07;;;9.20;;
68484;SDS011;55472;50.060;21.960;2022-12-07T06:55:25;31.27;;;10.70;;
68484;SDS011;55472;50.060;21.960;2022-12-07T06:57:51;33.13;;;9.25;;
68484;SDS011;55472;50.060;21.960;2022-12-07T07:00:17;14.63;;;5.78;;
68484;SDS011;55472;50.060;21.960;2022-12-07T07:02:44;10.47;;;4.13;;
68484;SDS011;55472;50.060;21.960;2022-12-07T07:05:10;17.17;;;6.13;;
68484;SDS011;55472;50.060;21.960;2022-12-07T07:07:36;25.65;;;7.93;;
68484;SDS011;55472;50.060;21.960;2022-12-07T07:10:02;20.15;;;6.80;;
68484;SDS011;55472;50.060;21.960;2022-12-07T07:12:29;16.40;;;5.97;;
68484;SDS011;55472;50.060;21.960;2022-12-07T07:14:55;25.23;;;7.30;;
68484;SDS011;55472;50.060;21.960;2022-12-07T07:17:22;18.13;;;6.75;;
68484;SDS011;55472;50.060;21.960;2022-12-07T07:19:47;23.00;;;8.60;;
68484;SDS011;55472;50.060;21.960;2022-12-07T07:22:14;21.52;;;7.22;;
68484;SDS011;55472;50.060;21.960;2022-12-07T07:24:40;16.47;;;5.27;;
68484;SDS011;55472;50.060;21.960;2022-12-07T07:27:06;11.75;;;4.70;;
68484;SDS011;55472;50.060;21.960;2022-12-07T07:29:32;19.63;;;6.72;;
68484;SDS011;55472;50.060;21.960;2022-12-07T07:31:59;17.95;;;5.40;;
68484;SDS011;55472;50.060;21.960;2022-12-07T07:34:26;16.80;;;6.23;;
68484;SDS011;55472;50.060;21.960;2022-12-07T07:36:52;13.48;;;5.47;;
68484;SDS011;55472;50.060;21.960;2022-12-07T07:39:18;20.85;;;7.72;;
68484;SDS011;55472;50.060;21.960;2022-12-07T07:41:44;19.33;;;6.65;;
68484;SDS011;55472;50.060;21.960;2022-12-07T07:44:10;15.18;;;5.35;;
68484;SDS011;55472;50.060;21.960;2022-12-07T07:46:36;12.30;;;4.20;;
68484;SDS011;55472;50.060;21.960;2022-12-07T07:49:02;13.00;;;5.03;;
68484;SDS011;55472;50.060;21.960;2022-12-07T07:51:28;13.80;;;5.80;;
68484;SDS011;55472;50.060;21.960;2022-12-07T07:53:54;14.80;;;5.78;;
68484;SDS011;55472;50.060;21.960;2022-12-07T07:56:21;48.00;;;12.63;;
68484;SDS011;55472;50.060;21.960;2022-12-07T07:58:46;34.75;;;9.90;;
68484;SDS011;55472;50.060;21.960;2022-12-07T08:01:13;26.77;;;8.48;;
68484;SDS011;55472;50.060;21.960;2022-12-07T08:03:41;31.38;;;9.85;;
68484;SDS011;55472;50.060;21.960;2022-12-07T08:06:07;68.25;;;17.48;;
68484;SDS011;55472;50.060;21.960;2022-12-07T08:08:33;50.10;;;12.97;;
68484;SDS011;55472;50.060;21.960;2022-12-07T08:10:59;32.05;;;10.48;;
68484;SDS011;55472;50.060;21.960;2022-12-07T08:13:26;41.63;;;12.18;;
68484;SDS011;55472;50.060;21.960;2022-12-07T08:15:53;58.58;;;16.20;;
68484;SDS011;55472;50.060;21.960;2022-12-07T08:18:19;59.67;;;16.73;;
68484;SDS011;55472;50.060;21.960;2022-12-07T08:20:45;25.08;;;8.02;;
68484;SDS011;55472;50.060;21.960;2022-12-07T08:23:11;24.10;;;8.25;;
68484;SDS011;55472;50.060;21.960;2022-12-07T08:25:38;43.97;;;13.70;;
68484;SDS011;55472;50.060;21.960;2022-12-07T08:28:05;29.38;;;9.80;;
68484;SDS011;55472;50.060;21.960;2022-12-07T08:30:32;13.07;;;4.97;;
68484;SDS011;55472;50.060;21.960;2022-12-07T08:32:58;12.25;;;5.95;;
68484;SDS011;55472;50.060;21.960;2022-12-07T08:35:24;28.85;;;10.05;;
68484;SDS011;55472;50.060;21.960;2022-12-07T08:37:51;13.88;;;5.80;;
68484;SDS011;55472;50.060;21.960;2022-12-07T08:40:17;20.48;;;8.60;;
68484;SDS011;55472;50.060;21.960;2022-12-07T08:42:50;10.27;;;4.43;;
68484;SDS011;55472;50.060;21.960;2022-12-07T08:45:17;12.70;;;4.63;;
68484;SDS011;55472;50.060;21.960;2022-12-07T08:47:55;12.77;;;5.43;;
68484;SDS011;55472;50.060;21.960;2022-12-07T08:50:28;18.38;;;7.80;;
68484;SDS011;55472;50.060;21.960;2022-12-07T08:52:55;18.70;;;7.60;;
68484;SDS011;55472;50.060;21.960;2022-12-07T08:55:24;14.87;;;5.30;;
68484;SDS011;55472;50.060;21.960;2022-12-07T08:57:52;12.05;;;5.13;;
68484;SDS011;55472;50.060;21.960;2022-12-07T09:00:18;15.35;;;6.93;;
68484;SDS011;55472;50.060;21.960;2022-12-07T09:02:45;17.00;;;6.35;;
68484;SDS011;55472;50.060;21.960;2022-12-07T09:05:15;15.18;;;5.97;;
68484;SDS011;55472;50.060;21.960;2022-12-07T09:07:41;11.63;;;5.03;;
68484;SDS011;55472;50.060;21.960;2022-12-07T09:10:11;14.73;;;6.10;;
68484;SDS011;55472;50.060;21.960;2022-12-07T09:12:37;15.10;;;6.05;;
68484;SDS011;55472;50.060;21.960;2022-12-07T09:15:03;12.85;;;5.10;;
68484;SDS011;55472;50.060;21.960;2022-12-07T09:17:31;12.40;;;5.47;;
68484;SDS011;55472;50.060;21.960;2022-12-07T09:19:58;13.77;;;6.13;;
68484;SDS011;55472;50.060;21.960;2022-12-07T09:22:29;11.15;;;5.00;;
68484;SDS011;55472;50.060;21.960;2022-12-07T09:24:59;12.00;;;5.28;;
68484;SDS011;55472;50.060;21.960;2022-12-07T09:27:26;15.30;;;5.93;;
68484;SDS011;55472;50.060;21.960;2022-12-07T09:29:53;12.88;;;5.07;;
68484;SDS011;55472;50.060;21.960;2022-12-07T09:32:19;12.27;;;5.03;;
68484;SDS011;55472;50.060;21.960;2022-12-07T09:34:45;13.48;;;5.40;;
68484;SDS011;55472;50.060;21.960;2022-12-07T09:37:11;15.30;;;5.82;;
68484;SDS011;55472;50.060;21.960;2022-12-07T09:39:38;15.10;;;6.25;;
68484;SDS011;55472;50.060;21.960;2022-12-07T09:42:05;13.87;;;5.03;;
68484;SDS011;55472;50.060;21.960;2022-12-07T09:44:32;13.73;;;5.70;;
68484;SDS011;55472;50.060;21.960;2022-12-07T09:47:00;13.10;;;5.15;;
68484;SDS011;55472;50.060;21.960;2022-12-07T09:49:28;15.75;;;5.43;;
68484;SDS011;55472;50.060;21.960;2022-12-07T09:52:00;14.15;;;6.32;;
68484;SDS011;55472;50.060;21.960;2022-12-07T09:54:35;12.87;;;4.83;;
68484;SDS011;55472;50.060;21.960;2022-12-07T09:57:07;12.95;;;6.07;;
68484;SDS011;55472;50.060;21.960;2022-12-07T09:59:36;18.02;;;6.88;;
68484;SDS011;55472;50.060;21.960;2022-12-07T10:04:52;20.17;;;6.63;;
68484;SDS011;55472;50.060;21.960;2022-12-07T10:07:19;12.93;;;5.63;;
68484;SDS011;55472;50.060;21.960;2022-12-07T10:09:45;17.35;;;5.88;;
68484;SDS011;55472;50.060;21.960;2022-12-07T10:12:11;28.90;;;9.13;;
68484;SDS011;55472;50.060;21.960;2022-12-07T10:14:39;22.70;;;8.30;;
68484;SDS011;55472;50.060;21.960;2022-12-07T10:20:23;45.97;;;12.95;;
68484;SDS011;55472;50.060;21.960;2022-12-07T10:25:32;25.55;;;8.20;;
68484;SDS011;55472;50.060;21.960;2022-12-07T10:30:33;36.83;;;11.27;;
68484;SDS011;55472;50.060;21.960;2022-12-07T10:33:34;31.00;;;9.07;;
68484;SDS011;55472;50.060;21.960;2022-12-07T10:36:19;31.75;;;8.70;;
68484;SDS011;55472;50.060;21.960;2022-12-07T10:39:02;25.30;;;7.93;;
68484;SDS011;55472;50.060;21.960;2022-12-07T10:41:59;28.13;;;9.05;;
68484;SDS011;55472;50.060;21.960;2022-12-07T10:44:28;13.23;;;5.07;;
68484;SDS011;55472;50.060;21.960;2022-12-07T11:08:09;17.08;;;6.60;;
68484;SDS011;55472;50.060;21.960;2022-12-07T11:11:40;17.25;;;6.00;;
68484;SDS011;55472;50.060;21.960;2022-12-07T11:22:54;12.98;;;5.25;;
68484;SDS011;55472;50.060;21.960;2022-12-07T11:25:38;7.88;;;3.58;;
68484;SDS011;55472;50.060;21.960;2022-12-07T11:37:03;11.45;;;3.83;;
68484;SDS011;55472;50.060;21.960;2022-12-07T11:39:44;8.63;;;3.33;;
68484;SDS011;55472;50.060;21.960;2022-12-07T11:43:19;9.37;;;3.23;;
68484;SDS011;55472;50.060;21.960;2022-12-07T11:45:46;8.07;;;3.35;;
68484;SDS011;55472;50.060;21.960;2022-12-07T11:48:33;8.63;;;3.22;;
68484;SDS011;55472;50.060;21.960;2022-12-07T11:51:06;7.97;;;2.92;;
68484;SDS011;55472;50.060;21.960;2022-12-07T11:53:40;9.43;;;3.17;;
68484;SDS011;55472;50.060;21.960;2022-12-07T12:04:58;8.25;;;3.38;;
68484;SDS011;55472;50.060;21.960;2022-12-07T12:07:32;9.38;;;3.40;;
68484;SDS011;55472;50.060;21.960;2022-12-07T12:10:00;11.10;;;3.70;;
68484;SDS011;55472;50.060;21.960;2022-12-07T12:13:34;8.70;;;3.40;;
68484;SDS011;55472;50.060;21.960;2022-12-07T12:16:04;13.77;;;4.00;;
68484;SDS011;55472;50.060;21.960;2022-12-07T12:19:19;10.27;;;4.07;;
68484;SDS011;55472;50.060;21.960;2022-12-07T12:22:03;9.60;;;3.97;;
68484;SDS011;55472;50.060;21.960;2022-12-07T12:24:37;10.63;;;3.80;;
68484;SDS011;55472;50.060;21.960;2022-12-07T12:27:07;12.00;;;4.45;;
68484;SDS011;55472;50.060;21.960;2022-12-07T12:29:41;17.42;;;6.53;;
68484;SDS011;55472;50.060;21.960;2022-12-07T12:40:59;10.70;;;3.90;;
68484;SDS011;55472;50.060;21.960;2022-12-07T12:56:56;12.07;;;4.82;;
68484;SDS011;55472;50.060;21.960;2022-12-07T13:02:25;11.43;;;5.00;;
68484;SDS011;55472;50.060;21.960;2022-12-07T13:13:08;12.65;;;4.78;;
68484;SDS011;55472;50.060;21.960;2022-12-07T13:15:50;14.05;;;5.55;;
68484;SDS011;55472;50.060;21.960;2022-12-07T13:18:40;14.30;;;5.20;;
68484;SDS011;55472;50.060;21.960;2022-12-07T13:39:59;15.23;;;5.75;;
68484;SDS011;55472;50.060;21.960;2022-12-07T13:42:43;14.75;;;5.85;;
68484;SDS011;55472;50.060;21.960;2022-12-07T13:48:16;30.85;;;11.05;;
68484;SDS011;55472;50.060;21.960;2022-12-07T13:50:56;28.58;;;10.45;;
68484;SDS011;55472;50.060;21.960;2022-12-07T13:53:24;25.38;;;9.23;;
68484;SDS011;55472;50.060;21.960;2022-12-07T13:55:56;25.90;;;9.55;;
68484;SDS011;55472;50.060;21.960;2022-12-07T13:58:24;20.60;;;8.07;;
68484;SDS011;55472;50.060;21.960;2022-12-07T14:00:52;19.85;;;8.18;;
68484;SDS011;55472;50.060;21.960;2022-12-07T14:06:04;25.83;;;11.55;;
68484;SDS011;55472;50.060;21.960;2022-12-07T14:08:50;29.75;;;12.45;;
68484;SDS011;55472;50.060;21.960;2022-12-07T14:11:34;33.10;;;12.73;;
68484;SDS011;55472;50.060;21.960;2022-12-07T14:14:01;30.80;;;12.68;;
68484;SDS011;55472;50.060;21.960;2022-12-07T14:19:02;44.55;;;15.88;;
68484;SDS011;55472;50.060;21.960;2022-12-07T14:21:34;33.95;;;12.90;;
68484;SDS011;55472;50.060;21.960;2022-12-07T14:24:12;55.93;;;18.93;;
68484;SDS011;55472;50.060;21.960;2022-12-07T14:26:43;62.10;;;21.60;;
68484;SDS011;55472;50.060;21.960;2022-12-07T14:32:01;116.57;;;37.55;;
68484;SDS011;55472;50.060;21.960;2022-12-07T14:34:41;47.92;;;17.00;;
68484;SDS011;55472;50.060;21.960;2022-12-07T14:37:09;68.53;;;23.40;;
68484;SDS011;55472;50.060;21.960;2022-12-07T14:39:35;61.78;;;21.23;;
68484;SDS011;55472;50.060;21.960;2022-12-07T14:42:02;45.65;;;16.90;;
68484;SDS011;55472;50.060;21.960;2022-12-07T14:44:28;42.88;;;15.27;;
68484;SDS011;55472;50.060;21.960;2022-12-07T14:46:54;50.90;;;17.48;;
68484;SDS011;55472;50.060;21.960;2022-12-07T14:49:20;53.53;;;18.13;;
68484;SDS011;55472;50.060;21.960;2022-12-07T14:51:46;54.58;;;18.00;;
68484;SDS011;55472;50.060;21.960;2022-12-07T14:54:19;57.45;;;18.73;;
68484;SDS011;55472;50.060;21.960;2022-12-07T14:56:49;42.15;;;14.48;;
68484;SDS011;55472;50.060;21.960;2022-12-07T14:59:16;35.55;;;14.25;;
68484;SDS011;55472;50.060;21.960;2022-12-07T15:01:44;30.27;;;11.50;;
68484;SDS011;55472;50.060;21.960;2022-12-07T15:04:10;58.53;;;25.48;;
68484;SDS011;55472;50.060;21.960;2022-12-07T15:06:36;79.50;;;34.40;;
68484;SDS011;55472;50.060;21.960;2022-12-07T15:09:02;33.83;;;13.90;;
68484;SDS011;55472;50.060;21.960;2022-12-07T15:11:29;26.65;;;10.52;;
68484;SDS011;55472;50.060;21.960;2022-12-07T15:13:55;24.90;;;8.90;;
68484;SDS011;55472;50.060;21.960;2022-12-07T15:16:34;24.60;;;9.18;;
68484;SDS011;55472;50.060;21.960;2022-12-07T15:19:02;19.05;;;7.80;;
68484;SDS011;55472;50.060;21.960;2022-12-07T15:21:28;26.52;;;10.07;;
68484;SDS011;55472;50.060;21.960;2022-12-07T15:23:54;41.80;;;13.70;;
68484;SDS011;55472;50.060;21.960;2022-12-07T15:26:20;33.20;;;12.95;;
68484;SDS011;55472;50.060;21.960;2022-12-07T15:28:46;34.30;;;13.02;;
68484;SDS011;55472;50.060;21.960;2022-12-07T15:31:16;33.92;;;14.20;;
68484;SDS011;55472;50.060;21.960;2022-12-07T15:33:43;31.88;;;13.30;;
68484;SDS011;55472;50.060;21.960;2022-12-07T15:36:17;36.67;;;13.30;;
68484;SDS011;55472;50.060;21.960;2022-12-07T15:38:47;40.97;;;15.35;;
68484;SDS011;55472;50.060;21.960;2022-12-07T15:41:14;67.70;;;20.98;;
68484;SDS011;55472;50.060;21.960;2022-12-07T15:43:40;35.85;;;13.55;;
68484;SDS011;55472;50.060;21.960;2022-12-07T15:46:31;110.68;;;41.90;;
68484;SDS011;55472;50.060;21.960;2022-12-07T15:49:00;61.53;;;25.10;;
68484;SDS011;55472;50.060;21.960;2022-12-07T15:51:27;165.70;;;36.03;;
68484;SDS011;55472;50.060;21.960;2022-12-07T15:53:53;101.55;;;25.77;;
68484;SDS011;55472;50.060;21.960;2022-12-07T15:56:20;61.17;;;18.08;;
68484;SDS011;55472;50.060;21.960;2022-12-07T15:58:46;89.45;;;24.80;;
68484;SDS011;55472;50.060;21.960;2022-12-07T16:01:12;48.10;;;15.43;;
68484;SDS011;55472;50.060;21.960;2022-12-07T16:03:41;65.18;;;20.40;;
68484;SDS011;55472;50.060;21.960;2022-12-07T16:06:09;45.35;;;14.55;;
68484;SDS011;55472;50.060;21.960;2022-12-07T16:08:35;64.90;;;22.73;;
68484;SDS011;55472;50.060;21.960;2022-12-07T16:11:05;53.15;;;17.75;;
68484;SDS011;55472;50.060;21.960;2022-12-07T16:13:33;46.73;;;16.27;;
68484;SDS011;55472;50.060;21.960;2022-12-07T16:16:03;50.25;;;18.75;;
68484;SDS011;55472;50.060;21.960;2022-12-07T16:18:35;84.15;;;28.70;;
68484;SDS011;55472;50.060;21.960;2022-12-07T16:21:02;42.78;;;16.65;;
68484;SDS011;55472;50.060;21.960;2022-12-07T16:23:28;44.90;;;17.88;;
68484;SDS011;55472;50.060;21.960;2022-12-07T16:25:54;45.00;;;16.67;;
68484;SDS011;55472;50.060;21.960;2022-12-07T16:28:29;54.92;;;20.25;;
68484;SDS011;55472;50.060;21.960;2022-12-07T16:31:02;40.90;;;17.27;;
68484;SDS011;55472;50.060;21.960;2022-12-07T16:33:32;59.55;;;27.77;;
68484;SDS011;55472;50.060;21.960;2022-12-07T16:36:00;45.22;;;17.77;;
68484;SDS011;55472;50.060;21.960;2022-12-07T16:38:28;59.57;;;18.80;;
68484;SDS011;55472;50.060;21.960;2022-12-07T16:40:55;42.85;;;15.48;;
68484;SDS011;55472;50.060;21.960;2022-12-07T16:43:21;48.42;;;16.70;;
68484;SDS011;55472;50.060;21.960;2022-12-07T16:45:47;53.65;;;18.30;;
68484;SDS011;55472;50.060;21.960;2022-12-07T16:48:14;61.22;;;19.48;;
68484;SDS011;55472;50.060;21.960;2022-12-07T16:50:42;54.63;;;17.17;;
68484;SDS011;55472;50.060;21.960;2022-12-07T16:53:11;43.33;;;15.80;;
68484;SDS011;55472;50.060;21.960;2022-12-07T16:55:48;43.35;;;16.55;;
68484;SDS011;55472;50.060;21.960;2022-12-07T16:58:15;45.13;;;14.75;;
68484;SDS011;55472;50.060;21.960;2022-12-07T17:00:42;37.13;;;14.15;;
68484;SDS011;55472;50.060;21.960;2022-12-07T17:03:09;30.93;;;11.73;;
68484;SDS011;55472;50.060;21.960;2022-12-07T17:05:40;29.67;;;10.85;;
68484;SDS011;55472;50.060;21.960;2022-12-07T17:08:08;36.67;;;13.10;;
68484;SDS011;55472;50.060;21.960;2022-12-07T17:10:36;29.85;;;11.23;;
68484;SDS011;55472;50.060;21.960;2022-12-07T17:13:05;36.05;;;11.60;;
68484;SDS011;55472;50.060;21.960;2022-12-07T17:16:01;26.80;;;11.07;;
68484;SDS011;55472;50.060;21.960;2022-12-07T17:18:32;36.22;;;13.02;;
68484;SDS011;55472;50.060;21.960;2022-12-07T17:21:07;49.35;;;17.25;;
68484;SDS011;55472;50.060;21.960;2022-12-07T17:23:34;35.72;;;13.63;;